Time;durP1;ratioP1;P1;durP2;ratioP2;P2;SDS_P1;SDS_P2;PMS_P1;PMS_P2;Temp;Humidity;BMP_temperature;BMP_pressure;BME280_temperature;BME280_humidity;BME280_pressure;Samples;Min_cycle;Max_cycle;Signal;HPM_P1;HPM_P2
2021/10/16 00:01:12;;;;;;;0.43;0.10;;;19.40;65.10;;;;;;5071879;28;20044;-56
2021/10/16 00:03:40;;;;;;;0.35;0.10;;;19.40;65.70;;;;;;5071784;28;20066;-59
2021/10/16 00:06:08;;;;;;;1.00;0.20;;;19.40;65.00;;;;;;5071749;28;20036;-60
2021/10/16 00:08:36;;;;;;;0.57;0.30;;;19.40;64.60;;;;;;5073397;28;20498;-60
2021/10/16 00:11:03;;;;;;;0.45;0.20;;;19.40;65.40;;;;;;5076389;28;20048;-60
2021/10/16 00:13:31;;;;;;;0.90;0.20;;;19.40;64.40;;;;;;5076252;28;20115;-63
2021/10/16 00:15:58;;;;;;;0.20;0.20;;;19.50;65.30;;;;;;5076156;28;20020;-62
2021/10/16 00:18:26;;;;;;;0.45;0.10;;;19.50;64.10;;;;;;5075932;28;20044;-61
2021/10/16 00:20:55;;;;;;;0.45;0.20;;;19.50;65.40;;;;;;5075561;28;20024;-63
2021/10/16 00:23:23;;;;;;;0.25;0.17;;;19.50;65.20;;;;;;5076157;28;20074;-63
2021/10/16 00:25:50;;;;;;;1.13;0.20;;;19.50;65.70;;;;;;5075270;28;20031;-55
2021/10/16 00:28:18;;;;;;;0.20;0.20;;;19.50;64.50;;;;;;5075417;28;20550;-64
2021/10/16 00:30:45;;;;;;;0.80;0.10;;;19.60;64.60;;;;;;5074927;28;20029;-62
2021/10/16 00:33:13;;;;;;;0.20;0.20;;;19.60;65.00;;;;;;5075147;28;20493;-59
2021/10/16 00:35:41;;;;;;;0.22;0.10;;;19.60;65.50;;;;;;5075468;28;20027;-64
2021/10/16 00:38:08;;;;;;;0.75;0.10;;;19.60;65.10;;;;;;5075895;28;20041;-61
2021/10/16 00:40:36;;;;;;;0.75;0.20;;;19.60;64.80;;;;;;5075654;28;20020;-62
2021/10/16 00:43:03;;;;;;;0.45;0.22;;;19.60;64.70;;;;;;5075396;28;20024;-62
2021/10/16 00:45:31;;;;;;;2.85;0.25;;;19.70;63.60;;;;;;5076068;28;20048;-62
2021/10/16 00:47:58;;;;;;;0.30;0.13;;;19.70;64.30;;;;;;5075419;28;20040;-60
2021/10/16 00:50:25;;;;;;;0.17;0.17;;;19.80;64.90;;;;;;5074138;28;20073;-57
2021/10/16 00:52:53;;;;;;;0.20;0.10;;;19.80;64.30;;;;;;5073479;28;20049;-62
2021/10/16 00:55:23;;;;;;;0.60;0.20;;;19.80;64.50;;;;;;5075198;28;20474;-57
2021/10/16 00:57:50;;;;;;;0.40;0.40;;;19.90;64.20;;;;;;5075100;28;20027;-64
2021/10/16 01:00:18;;;;;;;0.40;0.20;;;19.90;63.80;;;;;;5075340;28;20081;-66
2021/10/16 01:02:45;;;;;;;3.83;0.22;;;20.00;64.30;;;;;;5074608;28;20169;-63
2021/10/16 01:05:13;;;;;;;0.50;0.15;;;20.10;64.10;;;;;;5074970;28;20056;-63
2021/10/16 01:07:41;;;;;;;0.10;0.10;;;20.10;63.30;;;;;;5074858;28;20027;-63
2021/10/16 01:10:11;;;;;;;0.25;0.20;;;20.20;62.90;;;;;;5074785;28;20356;-63
2021/10/16 01:12:41;;;;;;;0.10;0.10;;;20.20;63.80;;;;;;5074743;28;20025;-55
2021/10/16 01:15:11;;;;;;;0.77;0.20;;;20.30;62.90;;;;;;5075039;28;20025;-64
2021/10/16 01:17:40;;;;;;;0.30;0.20;;;20.40;62.00;;;;;;5074614;28;20021;-64
2021/10/16 01:20:14;;;;;;;0.00;0.00;;;20.40;61.70;;;;;;5073859;28;20051;-66
2021/10/16 01:22:44;;;;;;;0.25;0.10;;;20.40;62.70;;;;;;5074958;28;20152;-60
2021/10/16 01:25:17;;;;;;;0.17;0.10;;;20.50;61.40;;;;;;5074503;28;20082;-60
2021/10/16 01:27:45;;;;;;;1.10;0.30;;;20.50;62.20;;;;;;5071043;28;20108;-63
2021/10/16 01:30:16;;;;;;;0.98;0.20;;;20.40;62.00;;;;;;5073151;28;20112;-63
2021/10/16 01:32:44;;;;;;;0.47;0.30;;;20.40;62.20;;;;;;5074301;28;20117;-65
2021/10/16 01:35:13;;;;;;;0.20;0.10;;;20.40;61.80;;;;;;5074285;28;20030;-63
2021/10/16 01:37:46;;;;;;;0.40;0.20;;;20.50;61.80;;;;;;5074385;28;20085;-64
2021/10/16 01:40:15;;;;;;;1.42;0.57;;;20.40;62.40;;;;;;5074328;28;20106;-63
2021/10/16 01:42:43;;;;;;;0.32;0.10;;;20.40;61.30;;;;;;5074509;28;20043;-61
2021/10/16 01:45:16;;;;;;;0.22;0.10;;;20.40;62.50;;;;;;5074663;28;20044;-61
2021/10/16 01:47:52;;;;;;;0.47;0.28;;;20.40;61.40;;;;;;5074357;28;20028;-61
2021/10/16 01:50:20;;;;;;;0.13;0.13;;;20.50;61.50;;;;;;5074099;28;20024;-66
2021/10/16 01:52:48;;;;;;;0.50;0.15;;;20.50;61.40;;;;;;5073709;28;20052;-65
2021/10/16 01:55:15;;;;;;;0.20;0.20;;;20.50;60.80;;;;;;5074318;28;20433;-66
2021/10/16 01:57:44;;;;;;;0.40;0.30;;;20.50;62.50;;;;;;5074553;28;20027;-61
2021/10/16 02:00:12;;;;;;;3.30;0.40;;;20.60;61.10;;;;;;5074624;28;20099;-64
2021/10/16 02:02:40;;;;;;;0.13;0.13;;;20.70;59.10;;;;;;5074649;28;20032;-62
2021/10/16 02:05:07;;;;;;;0.52;0.20;;;20.80;61.20;;;;;;5074093;28;20104;-61
2021/10/16 02:07:35;;;;;;;0.10;0.10;;;20.90;59.00;;;;;;5074522;28;20064;-64
2021/10/16 02:10:03;;;;;;;0.32;0.17;;;21.00;61.10;;;;;;5074321;28;20016;-58
2021/10/16 02:12:30;;;;;;;0.77;0.38;;;21.10;59.70;;;;;;5074083;28;20025;-61
2021/10/16 02:14:58;;;;;;;0.63;0.28;;;21.20;59.10;;;;;;5073542;28;20383;-62
2021/10/16 02:17:25;;;;;;;0.65;0.20;;;21.30;60.10;;;;;;5065109;28;20020;-64
2021/10/16 02:19:52;;;;;;;1.27;0.30;;;21.40;59.90;;;;;;5070498;28;20051;-67
2021/10/16 02:22:20;;;;;;;0.30;0.30;;;21.40;59.50;;;;;;5068709;28;20031;-67
2021/10/16 02:24:47;;;;;;;0.60;0.22;;;21.50;59.80;;;;;;5069494;28;20039;-63
2021/10/16 02:27:15;;;;;;;2.15;0.43;;;21.50;59.80;;;;;;5067530;28;20036;-62
2021/10/16 02:29:42;;;;;;;0.70;0.40;;;21.50;59.90;;;;;;5069724;28;20475;-64
2021/10/16 02:32:10;;;;;;;0.70;0.30;;;21.60;59.80;;;;;;5068858;28;20092;-64
2021/10/16 02:34:37;;;;;;;0.50;0.40;;;21.70;58.50;;;;;;5070875;28;20025;-67
2021/10/16 02:37:05;;;;;;;0.40;0.20;;;21.80;57.80;;;;;;5067427;28;20090;-65
2021/10/16 02:39:32;;;;;;;0.10;0.10;;;21.90;59.30;;;;;;5070357;28;20203;-62
2021/10/16 02:42:00;;;;;;;0.82;0.30;;;21.90;57.40;;;;;;5070862;28;20808;-60
2021/10/16 02:44:29;;;;;;;0.50;0.30;;;22.00;59.10;;;;;;5070788;28;20040;-54
2021/10/16 02:46:57;;;;;;;0.52;0.22;;;22.10;57.10;;;;;;5071884;28;20028;-58
2021/10/16 02:49:24;;;;;;;0.50;0.40;;;22.10;56.40;;;;;;5072526;28;20364;-56
2021/10/16 02:51:51;;;;;;;1.67;0.30;;;22.20;56.80;;;;;;5072519;28;20041;-62
2021/10/16 02:54:19;;;;;;;0.43;0.20;;;22.20;56.90;;;;;;5072899;28;20493;-60
2021/10/16 02:56:46;;;;;;;0.13;0.10;;;22.20;58.20;;;;;;5070401;28;20025;-62
2021/10/16 02:59:14;;;;;;;0.52;0.20;;;22.20;57.70;;;;;;5071310;28;20052;-54
2021/10/16 03:01:41;;;;;;;0.28;0.20;;;22.20;57.70;;;;;;5072543;28;20020;-59
2021/10/16 03:04:09;;;;;;;0.28;0.20;;;22.30;57.70;;;;;;5071802;28;20395;-57
2021/10/16 03:06:36;;;;;;;1.10;0.20;;;22.30;57.60;;;;;;5071142;28;20050;-62
2021/10/16 03:09:03;;;;;;;0.10;0.10;;;22.30;57.60;;;;;;5072194;28;20379;-59
2021/10/16 03:11:31;;;;;;;1.35;0.52;;;22.30;58.00;;;;;;5072208;28;20050;-61
2021/10/16 03:14:02;;;;;;;0.80;0.28;;;22.30;57.90;;;;;;5072688;28;20040;-59
2021/10/16 03:16:30;;;;;;;0.50;0.30;;;22.40;55.90;;;;;;5072565;28;20062;-58
2021/10/16 03:18:57;;;;;;;0.25;0.17;;;22.50;56.80;;;;;;5071957;28;20024;-56
2021/10/16 03:21:25;;;;;;;0.13;0.13;;;22.50;56.60;;;;;;5072829;28;20024;-63
2021/10/16 03:23:52;;;;;;;0.10;0.10;;;22.60;55.70;;;;;;5072919;28;20013;-56
2021/10/16 03:26:19;;;;;;;0.75;0.30;;;22.60;57.40;;;;;;5072139;28;20387;-56
2021/10/16 03:28:47;;;;;;;0.25;0.25;;;22.60;57.50;;;;;;5070829;28;20029;-62
2021/10/16 03:31:14;;;;;;;0.60;0.40;;;22.60;56.10;;;;;;5072529;28;20024;-58
2021/10/16 03:33:41;;;;;;;0.10;0.10;;;22.60;57.30;;;;;;5071887;28;20044;-54
2021/10/16 03:36:12;;;;;;;1.25;0.40;;;22.60;56.50;;;;;;5072292;28;20096;-60
2021/10/16 03:38:39;;;;;;;0.20;0.13;;;22.60;54.90;;;;;;5072117;28;20035;-61
2021/10/16 03:41:06;;;;;;;0.30;0.10;;;22.60;55.60;;;;;;5072002;28;20026;-59
2021/10/16 03:43:34;;;;;;;0.30;0.30;;;22.60;57.20;;;;;;5071747;28;20508;-55
2021/10/16 03:46:01;;;;;;;3.00;0.45;;;22.60;55.70;;;;;;5061923;28;20487;-56
2021/10/16 03:48:28;;;;;;;0.85;0.30;;;22.80;51.40;;;;;;5069148;28;20029;-60
2021/10/16 03:50:56;;;;;;;2.42;0.30;;;23.00;53.00;;;;;;5068094;28;20134;-56
2021/10/16 03:53:23;;;;;;;4.00;0.47;;;23.00;52.10;;;;;;5069253;28;20128;-59
2021/10/16 03:55:53;;;;;;;2.33;0.50;;;23.10;50.90;;;;;;5065695;28;20475;-59
2021/10/16 03:58:20;;;;;;;1.88;0.52;;;23.10;49.40;;;;;;5068474;28;20024;-60
2021/10/16 04:00:48;;;;;;;3.25;0.47;;;23.20;49.20;;;;;;5069023;28;20108;-60
2021/10/16 04:03:18;;;;;;;3.08;1.10;;;23.20;48.30;;;;;;5067460;28;20075;-60
2021/10/16 04:05:46;;;;;;;0.80;0.35;;;23.30;49.60;;;;;;5070425;28;20096;-57
2021/10/16 04:08:13;;;;;;;8.75;0.90;;;23.30;49.60;;;;;;5071700;28;20050;-55
2021/10/16 04:10:40;;;;;;;0.65;0.40;;;23.10;48.40;;;;;;5072156;28;20025;-57
2021/10/16 04:13:08;;;;;;;1.20;0.63;;;23.10;48.30;;;;;;5071654;28;20139;-58
2021/10/16 04:15:35;;;;;;;3.38;1.38;;;23.30;47.40;;;;;;5071723;28;20035;-56
2021/10/16 04:18:02;;;;;;;0.77;0.50;;;23.30;46.60;;;;;;5071216;28;20032;-58
2021/10/16 04:20:30;;;;;;;1.85;0.85;;;23.30;47.50;;;;;;5071706;28;20024;-57
2021/10/16 04:22:58;;;;;;;1.05;0.55;;;23.20;48.40;;;;;;5071590;28;20127;-57
2021/10/16 04:25:26;;;;;;;2.25;1.40;;;23.20;47.90;;;;;;5071923;28;20041;-58
2021/10/16 04:27:53;;;;;;;3.30;2.13;;;23.20;48.80;;;;;;5071637;28;20078;-58
2021/10/16 04:30:20;;;;;;;6.13;0.90;;;23.10;48.70;;;;;;5070416;28;20410;-57
2021/10/16 04:32:48;;;;;;;1.20;0.70;;;23.10;47.90;;;;;;5070947;28;20032;-58
2021/10/16 04:35:15;;;;;;;3.72;0.60;;;23.00;49.30;;;;;;5071430;28;20531;-59
2021/10/16 04:37:43;;;;;;;2.38;0.70;;;23.00;48.90;;;;;;5071577;28;20114;-58
2021/10/16 04:40:18;;;;;;;9.77;1.90;;;23.00;47.50;;;;;;5071118;28;20021;-59
2021/10/16 04:42:46;;;;;;;5.07;2.60;;;22.90;46.80;;;;;;5071155;28;20471;-58
2021/10/16 04:45:14;;;;;;;5.90;4.88;;;23.00;46.90;;;;;;5071262;28;20028;-58
2021/10/16 04:47:41;;;;;;;6.93;4.32;;;22.90;47.70;;;;;;5071207;28;20028;-56
2021/10/16 04:50:10;;;;;;;7.70;6.15;;;22.90;48.80;;;;;;5071581;28;20448;-56
2021/10/16 04:52:38;;;;;;;10.60;9.10;;;22.90;48.50;;;;;;5071360;28;20052;-59
2021/10/16 04:55:07;;;;;;;10.80;6.25;;;22.90;49.40;;;;;;5071833;28;20040;-59
2021/10/16 04:57:34;;;;;;;10.50;6.55;;;22.70;48.30;;;;;;5067108;28;20390;-59
2021/10/16 05:00:09;;;;;;;6.70;5.20;;;22.70;49.40;;;;;;5055788;28;20039;-60
2021/10/16 05:02:39;;;;;;;7.63;4.95;;;22.70;47.30;;;;;;5054166;28;20033;-59
2021/10/16 05:05:07;;;;;;;7.72;6.93;;;22.70;48.00;;;;;;5054263;28;20029;-58
2021/10/16 05:07:34;;;;;;;10.27;6.95;;;22.70;47.70;;;;;;5054045;28;20048;-56
2021/10/16 05:10:03;;;;;;;12.73;8.05;;;22.60;48.00;;;;;;5052692;28;20033;-57
2021/10/16 05:12:31;;;;;;;13.77;10.70;;;22.60;48.40;;;;;;5054810;28;20491;-58
2021/10/16 05:14:58;;;;;;;14.55;9.77;;;22.60;49.20;;;;;;5054154;28;20056;-59
2021/10/16 05:17:25;;;;;;;16.92;10.10;;;22.60;48.90;;;;;;5053702;28;20088;-59
2021/10/16 05:19:53;;;;;;;14.50;10.60;;;22.60;49.60;;;;;;5054580;28;20029;-55
2021/10/16 05:22:20;;;;;;;17.63;11.13;;;22.60;50.00;;;;;;5054503;28;20479;-60
2021/10/16 05:24:48;;;;;;;12.23;11.02;;;22.50;49.60;;;;;;5054182;28;20056;-60
2021/10/16 05:27:15;;;;;;;20.30;10.88;;;22.60;49.30;;;;;;5054623;28;20476;-59
2021/10/16 05:29:42;;;;;;;12.50;6.47;;;22.50;51.00;;;;;;5054612;28;20021;-59
2021/10/16 05:32:10;;;;;;;14.15;4.47;;;22.50;49.30;;;;;;5054576;28;20463;-56
2021/10/16 05:34:37;;;;;;;10.25;4.13;;;22.50;50.50;;;;;;5054560;28;20025;-57
2021/10/16 05:37:05;;;;;;;9.18;4.40;;;22.50;49.60;;;;;;5054384;28;20017;-59
2021/10/16 05:39:32;;;;;;;4.82;3.40;;;22.50;50.40;;;;;;5053941;28;20028;-58
2021/10/16 05:41:59;;;;;;;5.55;2.58;;;22.50;50.90;;;;;;5054077;28;20032;-62
2021/10/16 05:44:28;;;;;;;4.50;2.20;;;22.50;49.80;;;;;;5054570;28;20037;-58
2021/10/16 05:46:55;;;;;;;3.08;2.17;;;22.60;49.40;;;;;;5054298;28;20418;-61
2021/10/16 05:49:23;;;;;;;4.78;2.17;;;22.60;50.30;;;;;;5053832;28;20049;-55
2021/10/16 05:51:50;;;;;;;6.70;2.30;;;22.60;50.80;;;;;;5053813;28;20053;-60
2021/10/16 05:54:18;;;;;;;12.10;2.22;;;22.60;48.70;;;;;;5053807;28;20117;-59
2021/10/16 05:56:45;;;;;;;8.15;1.95;;;22.50;49.30;;;;;;5054295;28;20016;-59
2021/10/16 05:59:13;;;;;;;3.33;1.73;;;22.50;49.60;;;;;;5054183;28;20032;-57
2021/10/16 06:01:40;;;;;;;4.15;1.50;;;22.50;50.00;;;;;;5054001;28;20029;-57
2021/10/16 06:04:08;;;;;;;3.33;1.10;;;22.40;50.50;;;;;;5053815;28;20391;-60
2021/10/16 06:06:35;;;;;;;8.70;1.20;;;22.40;49.40;;;;;;5054109;28;20448;-57
2021/10/16 06:09:03;;;;;;;4.75;1.30;;;22.30;50.50;;;;;;5053765;28;20029;-59
2021/10/16 06:11:30;;;;;;;4.43;1.40;;;22.30;51.90;;;;;;5053292;28;20021;-61
2021/10/16 06:13:58;;;;;;;4.43;1.00;;;22.30;50.90;;;;;;5054567;28;20029;-60
2021/10/16 06:16:26;;;;;;;4.53;1.10;;;22.30;51.00;;;;;;5054236;28;20021;-60
2021/10/16 06:18:53;;;;;;;2.40;1.20;;;22.30;51.40;;;;;;5053612;28;20025;-60
2021/10/16 06:21:20;;;;;;;4.70;1.10;;;22.30;50.00;;;;;;5052300;28;20031;-60
2021/10/16 06:23:48;;;;;;;3.97;0.88;;;22.30;52.00;;;;;;5054131;28;20103;-60
2021/10/16 06:26:15;;;;;;;21.25;1.13;;;22.30;50.20;;;;;;5053496;28;20132;-60
2021/10/16 06:28:42;;;;;;;3.58;0.90;;;22.40;51.10;;;;;;5053569;28;20025;-60
2021/10/16 06:31:10;;;;;;;2.28;1.10;;;22.30;52.90;;;;;;5054028;28;20115;-58
2021/10/16 06:33:37;;;;;;;3.35;1.00;;;22.20;52.10;;;;;;5053424;28;20025;-61
2021/10/16 06:36:04;;;;;;;2.33;0.90;;;22.30;51.30;;;;;;5054054;28;20536;-60
2021/10/16 06:38:32;;;;;;;2.70;1.10;;;22.20;48.60;;;;;;5053496;28;20025;-61
2021/10/16 06:41:00;;;;;;;2.55;0.68;;;22.30;50.10;;;;;;5053201;28;20029;-59
2021/10/16 06:43:27;;;;;;;2.92;0.73;;;22.20;49.60;;;;;;5053545;28;20036;-58
2021/10/16 06:45:55;;;;;;;3.88;0.90;;;22.20;48.50;;;;;;5053379;28;20025;-58
2021/10/16 06:48:22;;;;;;;1.58;0.73;;;22.30;49.20;;;;;;5052849;28;20056;-59
2021/10/16 06:50:49;;;;;;;1.98;1.15;;;22.30;48.30;;;;;;5053365;28;20048;-57
2021/10/16 06:53:17;;;;;;;3.22;0.70;;;22.30;50.50;;;;;;5052437;28;20522;-59
2021/10/16 06:55:44;;;;;;;14.05;1.40;;;22.20;50.30;;;;;;5053948;28;20025;-60
2021/10/16 06:58:11;;;;;;;3.60;0.98;;;22.20;50.60;;;;;;5053622;28;20419;-57
2021/10/16 07:00:39;;;;;;;2.42;0.80;;;22.10;50.70;;;;;;5053119;28;20021;-59
2021/10/16 07:03:08;;;;;;;5.90;1.00;;;22.10;49.60;;;;;;5052492;28;20061;-60
2021/10/16 07:05:35;;;;;;;3.33;0.93;;;22.10;49.90;;;;;;5059301;28;20155;-59
2021/10/16 07:08:02;;;;;;;7.88;3.58;;;22.10;49.20;;;;;;5072684;28;20407;-56
2021/10/16 07:10:30;;;;;;;7.97;3.45;;;22.00;49.20;;;;;;5073002;28;20552;-54
2021/10/16 07:13:01;;;;;;;7.25;3.15;;;22.00;49.40;;;;;;5072446;28;20043;-54
2021/10/16 07:15:28;;;;;;;4.65;2.72;;;22.00;49.90;;;;;;5073146;28;20016;-59
2021/10/16 07:17:56;;;;;;;5.13;2.75;;;21.90;49.90;;;;;;5072618;28;20028;-59
2021/10/16 07:20:24;;;;;;;8.50;3.90;;;21.80;51.10;;;;;;5072962;28;20016;-58
2021/10/16 07:22:51;;;;;;;10.82;4.70;;;21.70;52.60;;;;;;5072753;28;20521;-57
2021/10/16 07:25:18;;;;;;;5.18;2.97;;;21.70;53.30;;;;;;5073183;28;20021;-60
2021/10/16 07:27:46;;;;;;;5.82;3.17;;;21.70;52.70;;;;;;5072983;28;20048;-64
2021/10/16 07:30:13;;;;;;;8.18;3.40;;;21.60;53.70;;;;;;5072129;28;20027;-64
2021/10/16 07:32:41;;;;;;;9.52;3.45;;;21.60;54.50;;;;;;5072497;28;20156;-55
2021/10/16 07:35:08;;;;;;;4.80;2.80;;;21.60;54.80;;;;;;5072753;28;20032;-57
2021/10/16 07:37:35;;;;;;;7.28;2.80;;;21.50;54.10;;;;;;5072987;28;20021;-60
2021/10/16 07:40:04;;;;;;;9.63;3.50;;;21.50;54.00;;;;;;5072345;28;20073;-59
2021/10/16 07:42:31;;;;;;;7.00;3.53;;;21.50;54.70;;;;;;5060290;28;20096;-65
2021/10/16 07:44:58;;;;;;;6.22;3.30;;;21.40;54.90;;;;;;5068601;28;20103;-63
2021/10/16 07:47:27;;;;;;;4.25;2.78;;;21.40;54.20;;;;;;5070347;28;20024;-63
2021/10/16 07:49:58;;;;;;;5.20;3.53;;;21.40;55.30;;;;;;5070228;28;20033;-66
2021/10/16 07:52:25;;;;;;;4.35;3.00;;;21.40;55.70;;;;;;5066491;28;20144;-62
2021/10/16 07:54:53;;;;;;;4.60;2.83;;;21.40;54.40;;;;;;5070096;28;20081;-57
2021/10/16 07:57:21;;;;;;;5.15;3.00;;;21.30;55.20;;;;;;5070682;28;20104;-60
2021/10/16 07:59:49;;;;;;;9.75;3.45;;;21.30;57.00;;;;;;5070903;28;20428;-63
2021/10/16 08:02:16;;;;;;;4.93;3.33;;;21.30;56.70;;;;;;5066948;28;20025;-67
2021/10/16 08:04:44;;;;;;;9.52;3.55;;;21.20;56.60;;;;;;5070742;28;20103;-59
2021/10/16 08:07:11;;;;;;;4.28;3.03;;;21.20;56.60;;;;;;5070694;28;20024;-64
2021/10/16 08:09:38;;;;;;;8.82;2.92;;;21.10;56.50;;;;;;5070130;28;20396;-69
2021/10/16 08:12:06;;;;;;;8.93;3.55;;;21.10;56.40;;;;;;5067759;28;20111;-65
2021/10/16 08:14:33;;;;;;;9.23;3.55;;;21.10;56.20;;;;;;5066972;28;20467;-58
2021/10/16 08:17:01;;;;;;;4.40;3.00;;;21.10;56.80;;;;;;5070540;28;20032;-64
2021/10/16 08:19:28;;;;;;;3.83;2.83;;;21.00;57.10;;;;;;5069886;28;20028;-62
2021/10/16 08:21:56;;;;;;;3.72;2.60;;;21.00;57.90;;;;;;5067166;28;20079;-66
2021/10/16 08:24:23;;;;;;;7.82;2.60;;;20.90;57.90;;;;;;5070379;28;20024;-63
2021/10/16 08:26:50;;;;;;;4.50;2.50;;;20.90;57.40;;;;;;5068691;28;20028;-56
2021/10/16 08:29:18;;;;;;;5.43;3.28;;;20.90;58.10;;;;;;5070872;28;20032;-65
2021/10/16 08:31:45;;;;;;;15.00;7.50;;;20.90;57.80;;;;;;5070831;28;20158;-65
2021/10/16 08:34:12;;;;;;;33.58;14.15;;;20.80;58.00;;;;;;5073642;28;20045;-70
2021/10/16 08:36:40;;;;;;;63.97;27.45;;;20.80;58.50;;;;;;5073617;28;20479;-66
2021/10/16 08:39:09;;;;;;;139.15;65.63;;;20.80;57.20;;;;;;5071799;28;20118;-64
2021/10/16 08:41:36;;;;;;;155.88;74.50;;;20.80;59.00;;;;;;5070236;28;20043;-65
2021/10/16 08:44:04;;;;;;;158.75;70.47;;;20.80;59.30;;;;;;5070620;28;20028;-63
2021/10/16 08:46:31;;;;;;;153.98;73.40;;;20.80;58.90;;;;;;5070359;28;20382;-69
2021/10/16 08:49:04;;;;;;;128.68;61.92;;;20.80;59.40;;;;;;5073722;28;20028;-65
2021/10/16 08:51:31;;;;;;;122.60;61.00;;;20.80;59.40;;;;;;5067714;28;20044;-64
2021/10/16 08:53:59;;;;;;;140.32;65.65;;;20.80;58.80;;;;;;5071042;28;20485;-64
2021/10/16 08:56:26;;;;;;;133.13;63.05;;;20.80;59.60;;;;;;5073506;28;20029;-65
2021/10/16 08:58:53;;;;;;;124.65;61.97;;;20.80;59.70;;;;;;5070848;28;20025;-66
2021/10/16 09:01:21;;;;;;;139.18;65.15;;;20.80;59.90;;;;;;5065179;28;20087;-62
2021/10/16 09:03:51;;;;;;;122.55;64.35;;;20.70;60.40;;;;;;5070175;28;20031;-63
2021/10/16 09:06:31;;;;;;;130.32;67.10;;;20.70;60.20;;;;;;5073045;28;20102;-62
2021/10/16 09:09:12;;;;;;;120.93;59.42;;;20.70;60.60;;;;;;5071146;28;20048;-66
2021/10/16 09:11:47;;;;;;;136.48;64.38;;;20.70;59.30;;;;;;5067378;28;20016;-67
2021/10/16 09:14:20;;;;;;;133.15;64.00;;;20.70;60.70;;;;;;5072629;28;20047;-62
2021/10/16 09:16:49;;;;;;;127.22;63.65;;;20.70;60.80;;;;;;5072790;28;20474;-62
2021/10/16 09:19:19;;;;;;;116.97;58.20;;;20.70;60.30;;;;;;5073140;28;20039;-62
2021/10/16 09:21:58;;;;;;;114.43;52.20;;;20.60;60.40;;;;;;5069404;28;20024;-60
2021/10/16 09:24:30;;;;;;;124.32;57.15;;;20.60;60.10;;;;;;5072405;28;20098;-62
2021/10/16 09:27:16;;;;;;;;;;;20.60;60.40;;;;;;5072681;28;20035;-63
2021/10/16 09:29:51;;;;;;;112.63;59.70;;;20.50;60.40;;;;;;5071650;28;19904;-66
2021/10/16 09:32:23;;;;;;;128.73;65.05;;;20.60;60.50;;;;;;5068702;28;20070;-64
2021/10/16 09:35:03;;;;;;;129.00;63.13;;;20.60;60.60;;;;;;5072198;28;20032;-67
2021/10/16 09:37:30;;;;;;;132.57;64.78;;;20.60;61.30;;;;;;5072789;28;20063;-68
2021/10/16 09:40:01;;;;;;;125.55;66.10;;;20.50;60.70;;;;;;5071406;28;20025;-64
2021/10/16 09:42:31;;;;;;;134.77;65.00;;;20.50;61.70;;;;;;5069045;28;20051;-62
2021/10/16 09:45:06;;;;;;;130.70;64.68;;;20.50;61.90;;;;;;5072819;28;20025;-61
2021/10/16 09:47:34;;;;;;;123.80;61.75;;;20.50;61.70;;;;;;5072553;28;20029;-64
2021/10/16 09:50:16;;;;;;;122.20;64.45;;;20.50;61.80;;;;;;5073162;28;20157;-64
2021/10/16 09:52:45;;;;;;;121.20;61.55;;;20.50;61.40;;;;;;5066881;28;20045;-60
2021/10/16 09:55:14;;;;;;;136.55;66.15;;;20.50;61.60;;;;;;5072566;28;20044;-60
2021/10/16 09:57:43;;;;;;;120.05;58.75;;;20.50;61.30;;;;;;5066833;28;20475;-58
2021/10/16 10:00:12;;;;;;;103.20;55.13;;;20.40;60.50;;;;;;5071733;28;20029;-65
2021/10/16 10:02:40;;;;;;;117.88;58.35;;;20.40;59.60;;;;;;5066930;28;20472;-65
2021/10/16 10:05:09;;;;;;;119.43;60.65;;;20.40;61.30;;;;;;5071951;28;20037;-66
2021/10/16 10:07:37;;;;;;;118.50;60.63;;;20.40;61.70;;;;;;5071929;28;20326;-70
2021/10/16 10:10:09;;;;;;;112.90;58.47;;;20.40;61.60;;;;;;5072097;28;20032;-65
2021/10/16 10:12:38;;;;;;;125.10;63.67;;;20.40;62.00;;;;;;5069727;28;20166;-61
2021/10/16 10:15:06;;;;;;;123.68;60.58;;;20.40;62.20;;;;;;5072637;28;20387;-64
2021/10/16 10:17:35;;;;;;;116.55;59.70;;;20.40;62.10;;;;;;5072133;28;20054;-63
2021/10/16 10:20:12;;;;;;;108.85;59.35;;;20.40;62.50;;;;;;5072800;28;20025;-61
2021/10/16 10:22:41;;;;;;;116.47;58.85;;;20.40;62.40;;;;;;5068911;28;20418;-58
2021/10/16 10:25:25;;;;;;;111.88;58.47;;;20.30;62.40;;;;;;5071893;28;20099;-63
2021/10/16 10:27:55;;;;;;;121.22;57.95;;;20.30;62.80;;;;;;5072770;28;20021;-60
2021/10/16 10:30:39;;;;;;;113.60;59.55;;;20.30;62.40;;;;;;5072436;28;20056;-61
2021/10/16 10:33:19;;;;;;;111.93;57.17;;;20.30;62.50;;;;;;5068307;28;20036;-60
2021/10/16 10:36:19;;;;;;;107.60;55.75;;;20.30;62.30;;;;;;5071674;28;20039;-59
2021/10/16 10:38:48;;;;;;;102.35;55.40;;;20.30;62.00;;;;;;5071005;28;20021;-61
2021/10/16 10:41:25;;;;;;;101.20;53.75;;;20.20;62.30;;;;;;5068347;28;20036;-59
2021/10/16 10:43:55;;;;;;;111.20;56.22;;;20.20;62.90;;;;;;5070972;28;20480;-58
2021/10/16 10:46:28;;;;;;;109.10;56.70;;;20.30;62.90;;;;;;5072182;28;20356;-59
2021/10/16 10:49:09;;;;;;;102.30;55.83;;;20.20;62.90;;;;;;5071983;28;20032;-62
2021/10/16 10:51:38;;;;;;;108.10;56.92;;;20.20;62.90;;;;;;5065656;28;20059;-62
2021/10/16 10:54:14;;;;;;;106.53;53.70;;;20.20;63.40;;;;;;5068310;28;20044;-62
2021/10/16 10:56:45;;;;;;;102.85;54.70;;;20.20;63.10;;;;;;5068577;28;20105;-70
2021/10/16 10:59:16;;;;;;;104.55;54.53;;;20.20;62.40;;;;;;5071239;28;20025;-65
2021/10/16 11:01:50;;;;;;;101.20;54.28;;;20.20;62.20;;;;;;5067404;28;20021;-61
2021/10/16 11:04:43;;;;;;;95.85;53.80;;;20.20;62.30;;;;;;5070524;28;20412;-60
2021/10/16 11:07:29;;;;;;;106.40;54.35;;;20.20;63.10;;;;;;5068257;28;21001;-62
2021/10/16 11:10:01;;;;;;;94.88;52.03;;;20.10;62.40;;;;;;5069042;28;20028;-63
2021/10/16 11:12:37;;;;;;;97.65;53.72;;;20.10;62.90;;;;;;5066603;28;20028;-62
2021/10/16 11:15:06;;;;;;;98.20;50.88;;;20.10;63.60;;;;;;5070477;28;20060;-64
2021/10/16 11:17:36;;;;;;;102.28;52.25;;;20.00;61.70;;;;;;5070825;28;20017;-66
2021/10/16 11:20:42;;;;;;;95.10;50.45;;;20.00;62.60;;;;;;5070240;28;20028;-55
2021/10/16 11:23:24;;;;;;;97.38;50.50;;;20.00;62.90;;;;;;5066825;28;20126;-67
2021/10/16 11:26:00;;;;;;;88.22;49.90;;;20.00;62.10;;;;;;5067412;28;20024;-66
2021/10/16 11:28:30;;;;;;;87.93;46.40;;;20.00;62.30;;;;;;5070035;28;20028;-66
2021/10/16 11:30:59;;;;;;;89.38;47.63;;;20.00;62.80;;;;;;5067916;28;20107;-68
2021/10/16 11:33:32;;;;;;;93.32;50.35;;;20.00;62.90;;;;;;5070141;28;20064;-65
2021/10/16 11:36:01;;;;;;;89.10;48.72;;;20.00;63.10;;;;;;5068799;28;20017;-63
2021/10/16 11:38:44;;;;;;;89.53;47.15;;;20.00;62.70;;;;;;5069543;28;20027;-57
2021/10/16 11:41:12;;;;;;;86.85;46.50;;;19.90;62.70;;;;;;5065528;28;20082;-61
2021/10/16 11:43:47;;;;;;;83.78;44.40;;;19.90;62.40;;;;;;5070251;28;20509;-61
2021/10/16 11:46:22;;;;;;;85.63;45.95;;;19.90;61.70;;;;;;5070190;28;20446;-64
2021/10/16 11:48:51;;;;;;;76.63;44.75;;;19.90;62.90;;;;;;5071123;28;20017;-63
2021/10/16 11:51:18;;;;;;;82.97;45.20;;;19.90;62.70;;;;;;5072882;28;20049;-64
2021/10/16 11:53:46;;;;;;;81.20;44.60;;;19.80;62.80;;;;;;5073150;28;20115;-62
2021/10/16 11:56:15;;;;;;;80.10;43.42;;;19.80;63.00;;;;;;5072707;28;20520;-68
2021/10/16 11:58:43;;;;;;;83.22;44.00;;;19.80;62.70;;;;;;5072869;28;20024;-62
2021/10/16 12:01:15;;;;;;;82.70;44.13;;;19.80;62.90;;;;;;5072977;28;20113;-61
2021/10/16 12:03:55;;;;;;;77.13;41.10;;;19.70;62.80;;;;;;5073088;28;20100;-60
2021/10/16 12:06:29;;;;;;;71.60;40.67;;;19.70;62.80;;;;;;5072854;28;20031;-64
2021/10/16 12:09:13;;;;;;;72.60;40.67;;;19.70;62.90;;;;;;5072606;28;20016;-58
2021/10/16 12:11:41;;;;;;;73.72;41.65;;;19.70;62.80;;;;;;5072236;28;20135;-62
2021/10/16 12:14:11;;;;;;;75.80;41.03;;;19.70;62.40;;;;;;5072011;28;20029;-61
2021/10/16 12:16:40;;;;;;;74.00;41.85;;;19.60;62.90;;;;;;5071444;28;20024;-61
2021/10/16 12:19:19;;;;;;;71.95;39.40;;;19.60;63.40;;;;;;5071212;28;20397;-62
2021/10/16 12:21:49;;;;;;;72.20;39.10;;;19.60;62.80;;;;;;5072268;28;20030;-62
2021/10/16 12:24:24;;;;;;;75.03;40.75;;;19.50;62.80;;;;;;5072034;28;20029;-61
2021/10/16 12:27:16;;;;;;;70.53;40.88;;;19.50;62.60;;;;;;5072129;28;20440;-63
2021/10/16 12:29:46;;;;;;;71.40;38.70;;;19.50;62.80;;;;;;5072335;28;20482;-64
2021/10/16 12:32:21;;;;;;;68.13;37.00;;;19.40;62.60;;;;;;5070871;28;20045;-63
2021/10/16 12:34:53;;;;;;;66.85;34.85;;;19.40;62.70;;;;;;5072140;28;20479;-59
2021/10/16 12:37:21;;;;;;;65.70;36.65;;;19.40;62.40;;;;;;5072247;28;20489;-62
2021/10/16 12:39:50;;;;;;;60.33;35.60;;;19.30;62.60;;;;;;5072133;28;20458;-61
2021/10/16 12:42:26;;;;;;;66.22;35.22;;;19.30;62.50;;;;;;5072275;28;20028;-59
2021/10/16 12:44:54;;;;;;;68.40;36.38;;;19.30;62.50;;;;;;5072443;28;20029;-61
2021/10/16 12:47:27;;;;;;;68.35;35.35;;;19.30;62.70;;;;;;5072514;28;20427;-63
2021/10/16 12:49:58;;;;;;;59.60;34.90;;;19.30;62.60;;;;;;5072195;28;20444;-63